sensor_id;sensor_type;location;lat;lon;timestamp;temperature;humidity
17944;DHT22;9097;47.028;15.444;2023-12-20T05:37:11;-1.10;99.90
17944;DHT22;9097;47.028;15.444;2023-12-20T05:40:15;-1.10;99.90
17944;DHT22;9097;47.028;15.444;2023-12-20T05:43:17;-1.10;99.90
17944;DHT22;9097;47.028;15.444;2023-12-20T05:46:20;-1.30;99.90
17944;DHT22;9097;47.028;15.444;2023-12-20T05:49:23;-1.30;99.90
17944;DHT22;9097;47.028;15.444;2023-12-20T05:52:25;-1.30;99.90
17944;DHT22;9097;47.028;15.444;2023-12-20T05:55:29;-1.30;99.90
17944;DHT22;9097;47.028;15.444;2023-12-20T05:58:32;-1.30;99.90
17944;DHT22;9097;47.028;15.444;2023-12-20T06:01:35;-1.00;99.90
17944;DHT22;9097;47.028;15.444;2023-12-20T06:04:37;-0.90;99.90
17944;DHT22;9097;47.028;15.444;2023-12-20T06:07:43;-0.80;99.90
17944;DHT22;9097;47.028;15.444;2023-12-20T06:10:47;-0.80;99.90
17944;DHT22;9097;47.028;15.444;2023-12-20T06:13:49;-0.70;99.90
17944;DHT22;9097;47.028;15.444;2023-12-20T06:16:54;-0.70;99.90
17944;DHT22;9097;47.028;15.444;2023-12-20T06:19:56;-0.50;99.90
17944;DHT22;9097;47.028;15.444;2023-12-20T06:22:58;-0.50;99.90
17944;DHT22;9097;47.028;15.444;2023-12-20T06:26:02;-0.40;99.90
17944;DHT22;9097;47.028;15.444;2023-12-20T06:29:05;-0.30;99.90
17944;DHT22;9097;47.028;15.444;2023-12-20T06:32:07;-0.20;99.90
17944;DHT22;9097;47.028;15.444;2023-12-20T06:35:10;-0.10;99.90
17944;DHT22;9097;47.028;15.444;2023-12-20T06:38:13;-0.10;99.90
17944;DHT22;9097;47.028;15.444;2023-12-20T06:41:17;-0.10;99.90
17944;DHT22;9097;47.028;15.444;2023-12-20T06:44:20;0.00;99.90
17944;DHT22;9097;47.028;15.444;2023-12-20T06:47:22;0.20;99.90
17944;DHT22;9097;47.028;15.444;2023-12-20T06:50:24;0.10;99.90
17944;DHT22;9097;47.028;15.444;2023-12-20T06:53:27;0.20;99.90
17944;DHT22;9097;47.028;15.444;2023-12-20T06:56:30;0.30;99.90
17944;DHT22;9097;47.028;15.444;2023-12-20T06:59:33;0.30;99.90
17944;DHT22;9097;47.028;15.444;2023-12-20T07:02:36;0.40;99.90
17944;DHT22;9097;47.028;15.444;2023-12-20T07:05:38;0.40;99.90
17944;DHT22;9097;47.028;15.444;2023-12-20T07:08:41;0.50;99.90
17944;DHT22;9097;47.028;15.444;2023-12-20T07:11:45;0.50;99.90
17944;DHT22;9097;47.028;15.444;2023-12-20T07:14:47;0.50;99.90
17944;DHT22;9097;47.028;15.444;2023-12-20T07:17:50;0.60;99.90
17944;DHT22;9097;47.028;15.444;2023-12-20T07:20:52;0.70;99.90
17944;DHT22;9097;47.028;15.444;2023-12-20T07:23:55;0.90;99.90
17944;DHT22;9097;47.028;15.444;2023-12-20T07:26:59;1.00;99.90
17944;DHT22;9097;47.028;15.444;2023-12-20T07:30:02;1.20;99.90
17944;DHT22;9097;47.028;15.444;2023-12-20T07:33:05;1.30;99.90
17944;DHT22;9097;47.028;15.444;2023-12-20T07:36:09;1.40;99.90
17944;DHT22;9097;47.028;15.444;2023-12-20T07:39:12;1.50;99.90
17944;DHT22;9097;47.028;15.444;2023-12-20T07:42:16;1.60;99.90
17944;DHT22;9097;47.028;15.444;2023-12-20T07:45:18;1.60;99.90
17944;DHT22;9097;47.028;15.444;2023-12-20T07:48:21;1.60;99.90
17944;DHT22;9097;47.028;15.444;2023-12-20T07:57:55;1.60;99.90
17944;DHT22;9097;47.028;15.444;2023-12-20T08:00:57;1.60;99.90
17944;DHT22;9097;47.028;15.444;2023-12-20T08:04:26;1.60;99.90
17944;DHT22;9097;47.028;15.444;2023-12-20T08:07:28;1.60;99.90
17944;DHT22;9097;47.028;15.444;2023-12-20T08:10:30;1.60;99.90
17944;DHT22;9097;47.028;15.444;2023-12-20T08:13:34;1.70;99.90
17944;DHT22;9097;47.028;15.444;2023-12-20T08:16:37;1.70;99.90
17944;DHT22;9097;47.028;15.444;2023-12-20T08:19:39;1.80;99.90
17944;DHT22;9097;47.028;15.444;2023-12-20T08:22:41;1.70;99.90
17944;DHT22;9097;47.028;15.444;2023-12-20T08:25:44;1.80;99.90
17944;DHT22;9097;47.028;15.444;2023-12-20T08:28:48;1.80;99.90
17944;DHT22;9097;47.028;15.444;2023-12-20T08:31:52;1.80;99.90
17944;DHT22;9097;47.028;15.444;2023-12-20T08:34:57;1.90;99.90
17944;DHT22;9097;47.028;15.444;2023-12-20T08:38:00;1.90;99.90
17944;DHT22;9097;47.028;15.444;2023-12-20T08:41:03;2.00;99.90
17944;DHT22;9097;47.028;15.444;2023-12-20T08:44:07;2.10;99.90
17944;DHT22;9097;47.028;15.444;2023-12-20T08:47:10;2.10;99.90
17944;DHT22;9097;47.028;15.444;2023-12-20T08:50:14;2.20;99.90
17944;DHT22;9097;47.028;15.444;2023-12-20T08:53:16;2.30;99.90
17944;DHT22;9097;47.028;15.444;2023-12-20T08:56:19;2.50;99.90
17944;DHT22;9097;47.028;15.444;2023-12-20T08:59:22;2.50;99.90
17944;DHT22;9097;47.028;15.444;2023-12-20T09:02:25;2.60;99.90
17944;DHT22;9097;47.028;15.444;2023-12-20T09:05:27;2.50;99.90
17944;DHT22;9097;47.028;15.444;2023-12-20T09:08:29;2.60;99.90
17944;DHT22;9097;47.028;15.444;2023-12-20T09:11:32;2.70;99.90
17944;DHT22;9097;47.028;15.444;2023-12-20T09:14:35;2.70;99.90
17944;DHT22;9097;47.028;15.444;2023-12-20T09:17:38;2.90;99.90
17944;DHT22;9097;47.028;15.444;2023-12-20T09:20:42;3.00;99.90
17944;DHT22;9097;47.028;15.444;2023-12-20T09:23:44;3.10;99.90
17944;DHT22;9097;47.028;15.444;2023-12-20T09:26:47;3.20;99.90
17944;DHT22;9097;47.028;15.444;2023-12-20T09:29:50;3.20;99.90
17944;DHT22;9097;47.028;15.444;2023-12-20T09:32:54;3.40;99.90
17944;DHT22;9097;47.028;15.444;2023-12-20T09:35:57;3.40;99.90
17944;DHT22;9097;47.028;15.444;2023-12-20T09:38:59;3.40;99.90
17944;DHT22;9097;47.028;15.444;2023-12-20T09:42:03;3.30;99.90
17944;DHT22;9097;47.028;15.444;2023-12-20T09:45:09;3.40;99.90
17944;DHT22;9097;47.028;15.444;2023-12-20T09:48:11;3.50;99.90
17944;DHT22;9097;47.028;15.444;2023-12-20T09:51:16;3.60;99.90
17944;DHT22;9097;47.028;15.444;2023-12-20T09:54:18;3.60;99.90
17944;DHT22;9097;47.028;15.444;2023-12-20T09:57:21;3.60;99.90
17944;DHT22;9097;47.028;15.444;2023-12-20T10:00:25;3.80;99.90
17944;DHT22;9097;47.028;15.444;2023-12-20T10:03:28;3.80;99.90
17944;DHT22;9097;47.028;15.444;2023-12-20T10:09:34;5.80;99.90
17944;DHT22;9097;47.028;15.444;2023-12-20T10:12:37;6.00;99.90
17944;DHT22;9097;47.028;15.444;2023-12-20T10:15:40;5.60;99.90
17944;DHT22;9097;47.028;15.444;2023-12-20T10:18:43;5.60;99.90
17944;DHT22;9097;47.028;15.444;2023-12-20T10:21:47;5.80;99.90
17944;DHT22;9097;47.028;15.444;2023-12-20T10:24:49;5.60;99.90
17944;DHT22;9097;47.028;15.444;2023-12-20T10:28:09;6.00;99.90
17944;DHT22;9097;47.028;15.444;2023-12-20T10:31:26;5.50;99.90
17944;DHT22;9097;47.028;15.444;2023-12-20T10:34:32;5.20;99.90
17944;DHT22;9097;47.028;15.444;2023-12-20T10:37:36;5.10;99.90
17944;DHT22;9097;47.028;15.444;2023-12-20T10:40:38;5.30;99.90
17944;DHT22;9097;47.028;15.444;2023-12-20T10:43:41;5.60;99.90
17944;DHT22;9097;47.028;15.444;2023-12-20T10:46:45;5.70;99.90
17944;DHT22;9097;47.028;15.444;2023-12-20T10:49:52;5.70;99.90
17944;DHT22;9097;47.028;15.444;2023-12-20T10:52:55;5.70;99.90
17944;DHT22;9097;47.028;15.444;2023-12-20T10:56:00;5.60;99.90
17944;DHT22;9097;47.028;15.444;2023-12-20T10:59:04;5.50;99.90
17944;DHT22;9097;47.028;15.444;2023-12-20T11:02:12;5.30;99.90
17944;DHT22;9097;47.028;15.444;2023-12-20T11:05:24;5.10;99.90
17944;DHT22;9097;47.028;15.444;2023-12-20T11:08:33;4.90;99.90
17944;DHT22;9097;47.028;15.444;2023-12-20T11:11:46;4.90;99.90
17944;DHT22;9097;47.028;15.444;2023-12-20T11:14:54;5.00;99.90
17944;DHT22;9097;47.028;15.444;2023-12-20T11:18:00;4.80;99.90
17944;DHT22;9097;47.028;15.444;2023-12-20T11:21:04;4.80;99.90
17944;DHT22;9097;47.028;15.444;2023-12-20T11:24:07;4.80;99.90
17944;DHT22;9097;47.028;15.444;2023-12-20T11:27:09;4.70;99.90
17944;DHT22;9097;47.028;15.444;2023-12-20T11:30:14;4.70;99.90
17944;DHT22;9097;47.028;15.444;2023-12-20T11:33:21;4.70;99.90
17944;DHT22;9097;47.028;15.444;2023-12-20T11:36:25;4.80;99.90
17944;DHT22;9097;47.028;15.444;2023-12-20T11:39:28;4.80;99.90
17944;DHT22;9097;47.028;15.444;2023-12-20T11:42:33;4.90;99.90
17944;DHT22;9097;47.028;15.444;2023-12-20T11:45:36;4.90;99.90
17944;DHT22;9097;47.028;15.444;2023-12-20T11:48:39;4.90;99.90
17944;DHT22;9097;47.028;15.444;2023-12-20T11:51:42;4.90;99.90
17944;DHT22;9097;47.028;15.444;2023-12-20T11:54:44;5.00;99.90
17944;DHT22;9097;47.028;15.444;2023-12-20T11:57:47;5.00;99.90
17944;DHT22;9097;47.028;15.444;2023-12-20T12:00:50;5.00;99.90
17944;DHT22;9097;47.028;15.444;2023-12-20T12:04:04;5.00;99.90
17944;DHT22;9097;47.028;15.444;2023-12-20T12:07:06;4.90;99.90
17944;DHT22;9097;47.028;15.444;2023-12-20T12:10:08;4.90;99.90
17944;DHT22;9097;47.028;15.444;2023-12-20T12:13:11;5.10;99.90
17944;DHT22;9097;47.028;15.444;2023-12-20T12:16:17;5.20;99.90
17944;DHT22;9097;47.028;15.444;2023-12-20T12:19:22;5.40;99.90
17944;DHT22;9097;47.028;15.444;2023-12-20T12:22:24;5.50;99.90
17944;DHT22;9097;47.028;15.444;2023-12-20T12:25:30;5.50;99.90
17944;DHT22;9097;47.028;15.444;2023-12-20T12:28:34;5.50;99.90
17944;DHT22;9097;47.028;15.444;2023-12-20T12:31:37;5.70;99.90
17944;DHT22;9097;47.028;15.444;2023-12-20T12:34:40;5.70;99.90
17944;DHT22;9097;47.028;15.444;2023-12-20T12:37:43;5.60;99.90
17944;DHT22;9097;47.028;15.444;2023-12-20T12:40:45;5.50;99.90
17944;DHT22;9097;47.028;15.444;2023-12-20T12:43:48;5.50;99.90
17944;DHT22;9097;47.028;15.444;2023-12-20T12:46:51;5.50;99.90
17944;DHT22;9097;47.028;15.444;2023-12-20T12:49:56;5.50;99.90
17944;DHT22;9097;47.028;15.444;2023-12-20T12:52:58;5.50;99.90
17944;DHT22;9097;47.028;15.444;2023-12-20T12:56:01;5.50;99.90
17944;DHT22;9097;47.028;15.444;2023-12-20T12:59:03;5.50;99.90
17944;DHT22;9097;47.028;15.444;2023-12-20T13:02:06;5.50;99.90
17944;DHT22;9097;47.028;15.444;2023-12-20T13:05:10;5.50;99.90
17944;DHT22;9097;47.028;15.444;2023-12-20T13:08:13;5.50;99.90
17944;DHT22;9097;47.028;15.444;2023-12-20T13:11:16;5.50;99.90
17944;DHT22;9097;47.028;15.444;2023-12-20T13:14:18;5.40;99.90
17944;DHT22;9097;47.028;15.444;2023-12-20T13:17:20;5.50;99.90
17944;DHT22;9097;47.028;15.444;2023-12-20T13:20:24;5.50;99.90
17944;DHT22;9097;47.028;15.444;2023-12-20T13:23:26;5.70;99.90
17944;DHT22;9097;47.028;15.444;2023-12-20T13:26:29;5.80;99.90
17944;DHT22;9097;47.028;15.444;2023-12-20T13:29:31;5.90;99.90
17944;DHT22;9097;47.028;15.444;2023-12-20T13:32:33;6.00;99.90
17944;DHT22;9097;47.028;15.444;2023-12-20T13:35:37;6.10;99.90
17944;DHT22;9097;47.028;15.444;2023-12-20T13:38:40;6.10;99.90
17944;DHT22;9097;47.028;15.444;2023-12-20T13:41:42;6.10;99.90
17944;DHT22;9097;47.028;15.444;2023-12-20T13:44:44;6.10;99.90
17944;DHT22;9097;47.028;15.444;2023-12-20T13:47:47;6.00;99.90
17944;DHT22;9097;47.028;15.444;2023-12-20T13:50:52;6.10;99.90
17944;DHT22;9097;47.028;15.444;2023-12-20T13:53:55;5.90;99.90
17944;DHT22;9097;47.028;15.444;2023-12-20T13:56:58;5.90;99.90
17944;DHT22;9097;47.028;15.444;2023-12-20T14:00:00;5.90;99.90
17944;DHT22;9097;47.028;15.444;2023-12-20T14:03:04;5.90;99.90
17944;DHT22;9097;47.028;15.444;2023-12-20T14:06:08;5.90;99.90
17944;DHT22;9097;47.028;15.444;2023-12-20T14:09:10;5.80;99.90
17944;DHT22;9097;47.028;15.444;2023-12-20T14:12:14;5.80;99.90
17944;DHT22;9097;47.028;15.444;2023-12-20T14:15:16;5.70;99.90
17944;DHT22;9097;47.028;15.444;2023-12-20T14:18:18;5.60;99.90
17944;DHT22;9097;47.028;15.444;2023-12-20T14:21:22;5.50;99.90
17944;DHT22;9097;47.028;15.444;2023-12-20T14:24:25;5.60;99.90
17944;DHT22;9097;47.028;15.444;2023-12-20T14:27:27;5.50;99.90
17944;DHT22;9097;47.028;15.444;2023-12-20T14:30:29;5.50;99.90
17944;DHT22;9097;47.028;15.444;2023-12-20T14:33:32;5.60;99.90
17944;DHT22;9097;47.028;15.444;2023-12-20T14:36:36;5.50;99.90
17944;DHT22;9097;47.028;15.444;2023-12-20T14:39:39;5.40;99.90
17944;DHT22;9097;47.028;15.444;2023-12-20T14:42:42;5.30;99.90
17944;DHT22;9097;47.028;15.444;2023-12-20T14:45:45;5.30;99.90
17944;DHT22;9097;47.028;15.444;2023-12-20T14:48:47;5.20;99.90
17944;DHT22;9097;47.028;15.444;2023-12-20T14:51:51;5.20;99.90
17944;DHT22;9097;47.028;15.444;2023-12-20T14:54:54;5.20;99.90
17944;DHT22;9097;47.028;15.444;2023-12-20T14:57:56;5.00;99.90
17944;DHT22;9097;47.028;15.444;2023-12-20T15:00:58;4.90;99.90
17944;DHT22;9097;47.028;15.444;2023-12-20T15:04:01;5.00;99.90
17944;DHT22;9097;47.028;15.444;2023-12-20T15:07:06;4.90;99.90
17944;DHT22;9097;47.028;15.444;2023-12-20T15:10:09;4.90;99.90
17944;DHT22;9097;47.028;15.444;2023-12-20T15:13:11;4.80;99.90
17944;DHT22;9097;47.028;15.444;2023-12-20T15:16:13;4.70;99.90
17944;DHT22;9097;47.028;15.444;2023-12-20T15:19:16;4.70;99.90
17944;DHT22;9097;47.028;15.444;2023-12-20T15:22:19;4.70;99.90
17944;DHT22;9097;47.028;15.444;2023-12-20T15:25:22;4.70;99.90
17944;DHT22;9097;47.028;15.444;2023-12-20T15:28:24;4.60;99.90
17944;DHT22;9097;47.028;15.444;2023-12-20T15:31:27;4.40;99.90
17944;DHT22;9097;47.028;15.444;2023-12-20T15:34:29;4.40;99.90
17944;DHT22;9097;47.028;15.444;2023-12-20T15:37:33;4.30;99.90
17944;DHT22;9097;47.028;15.444;2023-12-20T15:40:36;4.10;99.90
17944;DHT22;9097;47.028;15.444;2023-12-20T15:43:38;4.10;99.90
17944;DHT22;9097;47.028;15.444;2023-12-20T15:46:40;3.90;99.90
17944;DHT22;9097;47.028;15.444;2023-12-20T15:49:43;3.90;99.90
17944;DHT22;9097;47.028;15.444;2023-12-20T15:52:48;3.90;99.90
17944;DHT22;9097;47.028;15.444;2023-12-20T15:55:50;3.80;99.90
17944;DHT22;9097;47.028;15.444;2023-12-20T15:58:52;3.80;99.90
17944;DHT22;9097;47.028;15.444;2023-12-20T16:01:55;3.90;99.90
17944;DHT22;9097;47.028;15.444;2023-12-20T16:04:57;3.90;99.90
17944;DHT22;9097;47.028;15.444;2023-12-20T16:08:01;3.80;99.90
17944;DHT22;9097;47.028;15.444;2023-12-20T16:11:04;3.80;99.90
17944;DHT22;9097;47.028;15.444;2023-12-20T16:14:07;3.60;99.90
17944;DHT22;9097;47.028;15.444;2023-12-20T16:17:10;3.50;99.90
17944;DHT22;9097;47.028;15.444;2023-12-20T16:20:13;3.30;99.90
17944;DHT22;9097;47.028;15.444;2023-12-20T16:23:16;3.50;99.90
17944;DHT22;9097;47.028;15.444;2023-12-20T16:26:19;3.30;99.90
17944;DHT22;9097;47.028;15.444;2023-12-20T16:29:21;3.20;99.90
17944;DHT22;9097;47.028;15.444;2023-12-20T16:32:23;3.10;99.90
17944;DHT22;9097;47.028;15.444;2023-12-20T16:35:26;3.20;99.90
17944;DHT22;9097;47.028;15.444;2023-12-20T16:38:29;3.20;99.90
17944;DHT22;9097;47.028;15.444;2023-12-20T16:41:32;3.30;99.90
17944;DHT22;9097;47.028;15.444;2023-12-20T16:44:34;3.10;99.90
17944;DHT22;9097;47.028;15.444;2023-12-20T16:47:36;2.90;99.90
17944;DHT22;9097;47.028;15.444;2023-12-20T16:50:38;2.90;99.90
17944;DHT22;9097;47.028;15.444;2023-12-20T16:53:42;2.90;99.90
17944;DHT22;9097;47.028;15.444;2023-12-20T16:56:44;2.80;99.90
17944;DHT22;9097;47.028;15.444;2023-12-20T16:59:46;2.80;99.90
17944;DHT22;9097;47.028;15.444;2023-12-20T17:02:49;2.60;99.90
17944;DHT22;9097;47.028;15.444;2023-12-20T17:05:51;2.50;99.90
17944;DHT22;9097;47.028;15.444;2023-12-20T17:08:55;2.50;99.90
17944;DHT22;9097;47.028;15.444;2023-12-20T17:11:57;2.60;99.90
17944;DHT22;9097;47.028;15.444;2023-12-20T17:15:00;2.50;99.90
17944;DHT22;9097;47.028;15.444;2023-12-20T17:18:04;2.20;99.90
17944;DHT22;9097;47.028;15.444;2023-12-20T17:21:06;2.30;99.90
17944;DHT22;9097;47.028;15.444;2023-12-20T17:24:10;2.30;99.90
17944;DHT22;9097;47.028;15.444;2023-12-20T17:27:14;2.10;99.90
17944;DHT22;9097;47.028;15.444;2023-12-20T17:30:16;2.10;99.90
17944;DHT22;9097;47.028;15.444;2023-12-20T17:33:18;2.00;99.90
17944;DHT22;9097;47.028;15.444;2023-12-20T17:36:21;2.10;99.90
17944;DHT22;9097;47.028;15.444;2023-12-20T17:39:25;2.10;99.90
17944;DHT22;9097;47.028;15.444;2023-12-20T17:42:27;2.10;99.90
17944;DHT22;9097;47.028;15.444;2023-12-20T17:45:29;2.00;99.90
17944;DHT22;9097;47.028;15.444;2023-12-20T17:48:32;1.90;99.90
17944;DHT22;9097;47.028;15.444;2023-12-20T17:51:34;1.90;99.90
17944;DHT22;9097;47.028;15.444;2023-12-20T17:54:38;1.80;99.90
17944;DHT22;9097;47.028;15.444;2023-12-20T17:57:40;1.60;99.90
17944;DHT22;9097;47.028;15.444;2023-12-20T18:00:42;1.70;99.90
17944;DHT22;9097;47.028;15.444;2023-12-20T18:03:46;1.80;99.90
17944;DHT22;9097;47.028;15.444;2023-12-20T18:06:49;1.90;99.90
17944;DHT22;9097;47.028;15.444;2023-12-20T18:09:52;2.00;99.90
17944;DHT22;9097;47.028;15.444;2023-12-20T18:12:55;2.10;99.90
17944;DHT22;9097;47.028;15.444;2023-12-20T18:15:58;2.20;99.90
17944;DHT22;9097;47.028;15.444;2023-12-20T18:19:00;2.00;99.90
17944;DHT22;9097;47.028;15.444;2023-12-20T18:22:03;2.00;99.90
17944;DHT22;9097;47.028;15.444;2023-12-20T18:25:08;2.00;99.90
17944;DHT22;9097;47.028;15.444;2023-12-20T18:28:10;2.00;99.90
17944;DHT22;9097;47.028;15.444;2023-12-20T18:31:12;1.90;99.90
17944;DHT22;9097;47.028;15.444;2023-12-20T18:34:14;2.00;99.90
17944;DHT22;9097;47.028;15.444;2023-12-20T18:37:17;2.10;99.90
17944;DHT22;9097;47.028;15.444;2023-12-20T18:40:21;2.10;99.90
17944;DHT22;9097;47.028;15.444;2023-12-20T18:43:23;2.00;99.90
17944;DHT22;9097;47.028;15.444;2023-12-20T18:46:26;1.90;99.90
17944;DHT22;9097;47.028;15.444;2023-12-20T18:49:29;1.90;99.90
17944;DHT22;9097;47.028;15.444;2023-12-20T18:52:31;1.70;99.90
17944;DHT22;9097;47.028;15.444;2023-12-20T18:55:35;1.70;99.90
17944;DHT22;9097;47.028;15.444;2023-12-20T18:58:37;1.70;99.90
17944;DHT22;9097;47.028;15.444;2023-12-20T19:01:40;1.80;99.90
17944;DHT22;9097;47.028;15.444;2023-12-20T19:04:42;1.80;99.90
17944;DHT22;9097;47.028;15.444;2023-12-20T19:07:45;1.80;99.90
17944;DHT22;9097;47.028;15.444;2023-12-20T19:10:49;1.70;99.90
17944;DHT22;9097;47.028;15.444;2023-12-20T19:13:54;1.80;99.90
17944;DHT22;9097;47.028;15.444;2023-12-20T19:16:57;1.70;99.90
17944;DHT22;9097;47.028;15.444;2023-12-20T19:20:04;1.60;99.90
17944;DHT22;9097;47.028;15.444;2023-12-20T19:23:07;1.80;99.90
17944;DHT22;9097;47.028;15.444;2023-12-20T19:26:12;1.70;99.90
17944;DHT22;9097;47.028;15.444;2023-12-20T19:29:15;1.80;99.90
17944;DHT22;9097;47.028;15.444;2023-12-20T19:32:17;1.80;99.90
17944;DHT22;9097;47.028;15.444;2023-12-20T19:35:20;1.90;99.90
17944;DHT22;9097;47.028;15.444;2023-12-20T19:38:22;1.90;99.90
17944;DHT22;9097;47.028;15.444;2023-12-20T19:41:26;1.70;99.90
17944;DHT22;9097;47.028;15.444;2023-12-20T19:44:29;1.60;99.90
17944;DHT22;9097;47.028;15.444;2023-12-20T19:47:32;1.60;99.90
17944;DHT22;9097;47.028;15.444;2023-12-20T19:50:34;1.60;99.90
17944;DHT22;9097;47.028;15.444;2023-12-20T19:53:37;1.60;99.90
17944;DHT22;9097;47.028;15.444;2023-12-20T19:56:42;1.60;99.90
17944;DHT22;9097;47.028;15.444;2023-12-20T19:59:44;1.60;99.90
17944;DHT22;9097;47.028;15.444;2023-12-20T20:02:46;1.60;99.90
17944;DHT22;9097;47.028;15.444;2023-12-20T20:05:49;1.50;99.90
17944;DHT22;9097;47.028;15.444;2023-12-20T20:08:51;1.80;99.90
17944;DHT22;9097;47.028;15.444;2023-12-20T20:11:55;1.70;99.90
17944;DHT22;9097;47.028;15.444;2023-12-20T20:14:57;1.70;99.90
17944;DHT22;9097;47.028;15.444;2023-12-20T20:17:59;1.70;99.90
17944;DHT22;9097;47.028;15.444;2023-12-20T20:21:01;1.60;99.90
17944;DHT22;9097;47.028;15.444;2023-12-20T20:24:05;1.60;99.90
17944;DHT22;9097;47.028;15.444;2023-12-20T20:27:09;1.60;99.90
17944;DHT22;9097;47.028;15.444;2023-12-20T20:30:12;1.60;99.90
17944;DHT22;9097;47.028;15.444;2023-12-20T20:33:14;1.60;99.90
17944;DHT22;9097;47.028;15.444;2023-12-20T20:36:17;1.60;99.90
17944;DHT22;9097;47.028;15.444;2023-12-20T20:39:19;1.60;99.90
17944;DHT22;9097;47.028;15.444;2023-12-20T20:42:24;1.70;99.90
17944;DHT22;9097;47.028;15.444;2023-12-20T20:45:26;1.70;99.90
17944;DHT22;9097;47.028;15.444;2023-12-20T20:48:29;1.70;99.90
17944;DHT22;9097;47.028;15.444;2023-12-20T20:51:32;1.70;99.90
17944;DHT22;9097;47.028;15.444;2023-12-20T20:54:34;1.60;99.90
17944;DHT22;9097;47.028;15.444;2023-12-20T20:57:38;1.60;99.90
17944;DHT22;9097;47.028;15.444;2023-12-20T21:00:41;1.60;99.90
17944;DHT22;9097;47.028;15.444;2023-12-20T21:03:43;1.60;99.90
17944;DHT22;9097;47.028;15.444;2023-12-20T21:06:45;1.70;99.90
17944;DHT22;9097;47.028;15.444;2023-12-20T21:09:49;1.60;99.90
17944;DHT22;9097;47.028;15.444;2023-12-20T21:12:53;1.60;99.90
17944;DHT22;9097;47.028;15.444;2023-12-20T21:15:55;1.50;99.90
17944;DHT22;9097;47.028;15.444;2023-12-20T21:18:58;1.50;99.90
17944;DHT22;9097;47.028;15.444;2023-12-20T21:22:00;1.50;99.90
17944;DHT22;9097;47.028;15.444;2023-12-20T21:25:04;1.60;99.90
17944;DHT22;9097;47.028;15.444;2023-12-20T21:28:08;1.50;99.90
17944;DHT22;9097;47.028;15.444;2023-12-20T21:31:10;1.40;99.90
17944;DHT22;9097;47.028;15.444;2023-12-20T21:34:13;1.40;99.90
17944;DHT22;9097;47.028;15.444;2023-12-20T21:37:16;1.40;99.90
17944;DHT22;9097;47.028;15.444;2023-12-20T21:40:19;1.40;99.90
17944;DHT22;9097;47.028;15.444;2023-12-20T21:43:22;1.40;99.90
17944;DHT22;9097;47.028;15.444;2023-12-20T21:46:25;1.50;99.90
17944;DHT22;9097;47.028;15.444;2023-12-20T21:49:29;1.60;99.90
17944;DHT22;9097;47.028;15.444;2023-12-20T21:52:33;1.60;99.90
17944;DHT22;9097;47.028;15.444;2023-12-20T21:55:36;1.50;99.90
17944;DHT22;9097;47.028;15.444;2023-12-20T21:58:40;1.60;99.90
17944;DHT22;9097;47.028;15.444;2023-12-20T22:01:43;1.50;99.90
17944;DHT22;9097;47.028;15.444;2023-12-20T22:04:45;1.50;99.90
17944;DHT22;9097;47.028;15.444;2023-12-20T22:07:48;1.50;99.90
17944;DHT22;9097;47.028;15.444;2023-12-20T22:10:50;1.50;99.90
17944;DHT22;9097;47.028;15.444;2023-12-20T22:13:54;1.40;99.90
17944;DHT22;9097;47.028;15.444;2023-12-20T22:16:56;1.60;99.90
17944;DHT22;9097;47.028;15.444;2023-12-20T22:19:59;1.60;99.90
17944;DHT22;9097;47.028;15.444;2023-12-20T22:23:01;1.60;99.90
17944;DHT22;9097;47.028;15.444;2023-12-20T22:26:04;1.60;99.90
17944;DHT22;9097;47.028;15.444;2023-12-20T22:29:10;1.70;99.90
17944;DHT22;9097;47.028;15.444;2023-12-20T22:32:12;1.80;99.90
17944;DHT22;9097;47.028;15.444;2023-12-20T22:35:14;1.60;99.90
17944;DHT22;9097;47.028;15.444;2023-12-20T22:38:17;1.60;99.90
17944;DHT22;9097;47.028;15.444;2023-12-20T22:41:19;1.70;99.90
17944;DHT22;9097;47.028;15.444;2023-12-20T22:44:23;1.70;99.90
17944;DHT22;9097;47.028;15.444;2023-12-20T22:47:26;1.70;99.90
17944;DHT22;9097;47.028;15.444;2023-12-20T22:50:28;1.60;99.90
17944;DHT22;9097;47.028;15.444;2023-12-20T22:53:31;1.70;99.90
17944;DHT22;9097;47.028;15.444;2023-12-20T22:56:33;1.60;99.90
17944;DHT22;9097;47.028;15.444;2023-12-20T22:59:37;1.80;99.90
17944;DHT22;9097;47.028;15.444;2023-12-20T23:02:39;1.80;99.90
17944;DHT22;9097;47.028;15.444;2023-12-20T23:05:42;1.80;99.90
17944;DHT22;9097;47.028;15.444;2023-12-20T23:08:45;1.90;99.90
17944;DHT22;9097;47.028;15.444;2023-12-20T23:11:47;1.90;99.90
17944;DHT22;9097;47.028;15.444;2023-12-20T23:14:51;1.90;99.90
17944;DHT22;9097;47.028;15.444;2023-12-20T23:17:54;2.00;99.90
17944;DHT22;9097;47.028;15.444;2023-12-20T23:20:58;2.00;99.90
17944;DHT22;9097;47.028;15.444;2023-12-20T23:24:00;2.00;99.90
17944;DHT22;9097;47.028;15.444;2023-12-20T23:27:03;2.00;99.90
17944;DHT22;9097;47.028;15.444;2023-12-20T23:30:08;2.00;99.90
17944;DHT22;9097;47.028;15.444;2023-12-20T23:33:11;2.00;99.90
17944;DHT22;9097;47.028;15.444;2023-12-20T23:36:13;1.90;99.90
17944;DHT22;9097;47.028;15.444;2023-12-20T23:39:15;1.90;99.90
17944;DHT22;9097;47.028;15.444;2023-12-20T23:42:18;1.90;99.90
17944;DHT22;9097;47.028;15.444;2023-12-20T23:45:22;1.90;99.90
17944;DHT22;9097;47.028;15.444;2023-12-20T23:48:24;1.90;99.90
17944;DHT22;9097;47.028;15.444;2023-12-20T23:51:27;1.90;99.90
17944;DHT22;9097;47.028;15.444;2023-12-20T23:54:29;1.90;99.90
17944;DHT22;9097;47.028;15.444;2023-12-20T23:57:32;1.90;99.90
